Time;durP1;ratioP1;P1;durP2;ratioP2;P2;SDS_P1;SDS_P2;PMS_P1;PMS_P2;Temp;Humidity;BMP_temperature;BMP_pressure;BME280_temperature;BME280_humidity;BME280_pressure;Samples;Min_cycle;Max_cycle;Signal;HPM_P1;HPM_P2
2022/01/22 00:00:18;;;;;;;10.45;5.20;;;0.50;2201.60;;;;;;4992711;28;20092;-70
2022/01/22 00:02:45;;;;;;;7.35;4.38;;;0.50;2201.60;;;;;;5009726;28;20034;-70
2022/01/22 00:05:12;;;;;;;12.13;5.68;;;0.50;2201.60;;;;;;4991519;28;20088;-70
2022/01/22 00:07:38;;;;;;;10.52;4.20;;;0.50;2201.60;;;;;;4985485;28;20040;-69
2022/01/22 00:10:14;;;;;;;7.72;4.80;;;0.50;2201.60;;;;;;4990839;28;20026;-70
2022/01/22 00:15:31;;;;;;;8.55;4.60;;;0.50;2201.60;;;;;;4949916;28;20035;-69
2022/01/22 00:17:58;;;;;;;11.32;5.05;;;0.60;2201.60;;;;;;4947347;28;20450;-70
2022/01/22 00:20:26;;;;;;;8.00;4.72;;;0.50;2201.60;;;;;;4951285;28;20123;-71
2022/01/22 00:22:52;;;;;;;10.98;4.88;;;0.50;2201.60;;;;;;4953667;28;20043;-69
2022/01/22 00:25:20;;;;;;;7.18;3.95;;;0.50;2201.60;;;;;;4948151;28;20037;-69
2022/01/22 00:27:47;;;;;;;8.02;4.25;;;0.60;2201.60;;;;;;4947937;28;20537;-68
2022/01/22 00:30:19;;;;;;;9.38;4.50;;;0.60;2201.60;;;;;;4951643;28;20195;-71
2022/01/22 00:32:45;;;;;;;7.85;4.97;;;0.60;2201.60;;;;;;4948762;28;20034;-68
2022/01/22 00:35:12;;;;;;;11.80;5.07;;;0.50;2201.60;;;;;;4951018;28;20426;-69
2022/01/22 00:37:39;;;;;;;8.10;4.32;;;0.50;2201.60;;;;;;4969192;28;20039;-69
2022/01/22 00:40:06;;;;;;;7.72;4.05;;;0.50;2201.60;;;;;;4971570;28;20162;-69
2022/01/22 00:42:33;;;;;;;7.85;4.10;;;0.40;2201.60;;;;;;4961210;28;20070;-70
2022/01/22 00:44:59;;;;;;;10.68;4.78;;;0.50;2201.60;;;;;;4970237;28;20045;-69
2022/01/22 00:47:25;;;;;;;9.85;4.50;;;0.50;2201.60;;;;;;4966220;28;20043;-71
2022/01/22 00:49:51;;;;;;;10.05;4.57;;;0.40;2201.60;;;;;;4955874;28;20796;-69
2022/01/22 00:52:17;;;;;;;9.90;4.55;;;0.50;2201.60;;;;;;4981698;28;20450;-69
2022/01/22 00:54:43;;;;;;;5.60;3.78;;;0.50;2201.60;;;;;;5012399;28;20057;-69
2022/01/22 00:57:09;;;;;;;12.85;4.63;;;0.50;2201.60;;;;;;5011608;28;20038;-70
2022/01/22 00:59:35;;;;;;;11.63;4.78;;;0.50;2201.60;;;;;;4982229;28;20397;-69
2022/01/22 01:02:02;;;;;;;10.52;4.68;;;0.50;2201.60;;;;;;5011939;28;20030;-69
2022/01/22 01:04:28;;;;;;;6.40;3.45;;;0.50;2201.60;;;;;;5012688;28;20488;-69
2022/01/22 01:06:54;;;;;;;8.20;5.07;;;0.50;2201.60;;;;;;4995073;28;20999;-70
2022/01/22 01:09:20;;;;;;;7.70;3.80;;;0.60;2201.60;;;;;;5012258;28;20403;-70
2022/01/22 01:11:54;;;;;;;15.50;4.22;;;0.60;2201.60;;;;;;5012337;28;20076;-71
2022/01/22 01:14:32;;;;;;;5.75;3.92;;;0.70;2201.60;;;;;;4994768;28;20034;-69
2022/01/22 01:33:22;;;;;;;8.30;3.72;;;0.80;2201.60;;;;;;5011986;28;20040;-70
2022/01/22 01:35:48;;;;;;;9.15;4.03;;;0.80;2201.60;;;;;;4996808;28;20029;-69
2022/01/22 01:38:14;;;;;;;11.75;4.03;;;0.80;2201.60;;;;;;4994600;28;20030;-71
2022/01/22 01:40:44;;;;;;;8.10;3.95;;;0.80;2201.60;;;;;;5012761;28;20061;-69
2022/01/22 01:43:33;;;;;;;6.95;4.88;;;0.80;2201.60;;;;;;5011316;28;20030;-70
2022/01/22 01:45:59;;;;;;;8.00;4.13;;;0.80;2201.60;;;;;;5010774;28;20033;-70
2022/01/22 01:48:29;;;;;;;14.52;4.55;;;0.70;2201.60;;;;;;5006284;28;20042;-70
2022/01/22 01:50:57;;;;;;;13.77;5.93;;;0.70;2201.60;;;;;;5010549;28;20044;-69
2022/01/22 01:53:44;;;;;;;7.60;4.10;;;0.60;2201.60;;;;;;5012387;28;20034;-69
2022/01/22 01:59:15;;;;;;;10.00;4.22;;;0.70;2201.60;;;;;;4951146;29;20033;-69
2022/01/22 02:01:41;;;;;;;9.77;4.93;;;0.70;2201.60;;;;;;4950993;29;20126;-69
2022/01/22 02:04:10;;;;;;;9.52;5.35;;;0.70;2201.60;;;;;;4950841;29;20498;-69
2022/01/22 02:06:36;;;;;;;15.80;6.22;;;0.70;2201.60;;;;;;4950973;29;20161;-69
2022/01/22 02:09:06;;;;;;;9.15;5.53;;;0.70;2201.60;;;;;;4950827;29;20502;-69
2022/01/22 02:11:32;;;;;;;10.05;6.32;;;0.60;2201.60;;;;;;4950737;29;20041;-69
2022/01/22 02:24:54;;;;;;;6.20;3.63;;;0.50;2201.60;;;;;;4950625;28;20070;-69
2022/01/22 02:27:20;;;;;;;7.25;3.72;;;0.40;2201.60;;;;;;4950460;29;20079;-69
2022/01/22 02:29:47;;;;;;;8.48;3.60;;;0.30;2201.60;;;;;;4975350;28;20064;-69
2022/01/22 02:35:15;;;;;;;11.07;4.22;;;0.30;2201.60;;;;;;5010607;28;20045;-69
2022/01/22 02:37:48;;;;;;;6.18;3.63;;;0.30;2201.60;;;;;;4993813;28;20030;-69
2022/01/22 02:40:22;;;;;;;10.00;4.63;;;0.30;2201.60;;;;;;5011076;28;20065;-69
2022/01/22 02:42:48;;;;;;;7.03;3.95;;;0.20;2201.60;;;;;;5009243;28;20042;-69
2022/01/22 02:45:18;;;;;;;8.35;3.47;;;0.20;2201.60;;;;;;5009968;28;20400;-69
2022/01/22 02:47:45;;;;;;;7.22;4.70;;;0.10;2201.60;;;;;;5008829;28;20037;-69
2022/01/22 02:50:11;;;;;;;8.82;4.72;;;0.10;2201.60;;;;;;5010851;28;20041;-69
2022/01/22 02:52:37;;;;;;;5.30;3.53;;;0.10;2201.60;;;;;;5010701;28;20034;-69
2022/01/22 02:55:06;;;;;;;6.97;4.57;;;0.10;2201.60;;;;;;4993164;28;20092;-69
2022/01/22 02:57:33;;;;;;;7.85;3.80;;;0.10;2201.60;;;;;;5010788;28;20120;-69
2022/01/22 03:00:00;;;;;;;8.73;3.85;;;0.10;2201.60;;;;;;5010606;28;20608;-69
2022/01/22 03:02:26;;;;;;;7.18;4.30;;;0.10;2201.60;;;;;;5008973;28;20087;-69
2022/01/22 03:04:52;;;;;;;9.63;3.90;;;0.10;2201.60;;;;;;5010638;28;20042;-69
2022/01/22 03:07:18;;;;;;;8.80;4.03;;;0.10;2201.60;;;;;;5010765;28;20435;-68
2022/01/22 03:09:46;;;;;;;9.75;3.85;;;0.10;2201.60;;;;;;5009872;28;20038;-69
2022/01/22 03:27:47;;;;;;;8.25;4.15;;;0.00;2201.60;;;;;;4991245;28;20133;-70
2022/01/22 03:30:12;;;;;;;10.57;4.10;;;0.00;2201.60;;;;;;4972999;28;20042;-70
2022/01/22 03:32:43;;;;;;;8.43;4.70;;;12.90;2201.60;;;;;;4973866;28;20412;-69
2022/01/22 03:37:37;;;;;;;10.80;4.03;;;12.90;2201.60;;;;;;4991136;28;20096;-69
2022/01/22 03:40:04;;;;;;;10.43;4.05;;;12.90;2201.60;;;;;;4991308;28;20034;-70
2022/01/22 03:42:30;;;;;;;8.75;4.05;;;12.90;2201.60;;;;;;4990841;28;20122;-70
2022/01/22 03:44:55;;;;;;;5.80;3.50;;;13.00;2201.60;;;;;;4990916;28;20106;-69
2022/01/22 03:47:21;;;;;;;6.75;3.42;;;13.00;2201.60;;;;;;4990296;28;20533;-69
2022/01/22 03:49:47;;;;;;;10.32;4.38;;;13.00;2201.60;;;;;;4972882;28;20044;-69
2022/01/22 03:52:13;;;;;;;7.80;4.22;;;13.00;2201.60;;;;;;4988957;28;20033;-70
2022/01/22 03:54:39;;;;;;;8.00;3.17;;;13.00;2201.60;;;;;;4990389;28;20085;-70
2022/01/22 03:57:06;;;;;;;9.32;5.72;;;13.00;2201.60;;;;;;4992364;28;20149;-70
2022/01/22 03:59:32;;;;;;;9.50;4.30;;;13.00;2201.60;;;;;;4992567;28;20037;-70
2022/01/22 04:04:43;;;;;;;10.15;4.25;;;13.00;2201.60;;;;;;5007302;28;20500;-69
2022/01/22 04:07:44;;;;;;;9.00;4.20;;;12.90;2201.60;;;;;;4992820;28;20054;-70
2022/01/22 04:10:05;;;;;;;9.30;5.40;;;12.90;2201.60;;;;;;5009734;28;20100;-69
2022/01/22 04:12:47;;;;;;;10.63;4.95;;;0.00;2201.60;;;;;;5010675;28;20392;-70
2022/01/22 04:15:15;;;;;;;16.05;5.22;;;0.00;2201.60;;;;;;4992754;28;20034;-70
2022/01/22 04:26:13;;;;;;;16.13;7.57;;;0.10;2201.60;;;;;;5014600;28;20563;-70
2022/01/22 04:28:39;;;;;;;10.75;5.82;;;0.10;2201.60;;;;;;5014142;28;20069;-70
2022/01/22 04:31:04;;;;;;;11.00;5.47;;;0.10;2201.60;;;;;;5014230;28;20065;-70
2022/01/22 04:33:30;;;;;;;11.10;4.72;;;0.00;2201.60;;;;;;5014136;28;20065;-70
2022/01/22 04:35:56;;;;;;;9.80;5.22;;;0.10;2201.60;;;;;;5014354;28;20088;-70
2022/01/22 04:38:22;;;;;;;7.65;4.20;;;0.10;2201.60;;;;;;5014168;28;20030;-70
2022/01/22 04:40:47;;;;;;;8.73;5.00;;;0.10;2201.60;;;;;;5013522;28;20045;-70
2022/01/22 04:43:13;;;;;;;11.10;6.47;;;0.10;2201.60;;;;;;5013058;28;20057;-70
2022/01/22 04:45:51;;;;;;;7.68;5.60;;;0.10;2201.60;;;;;;5013929;28;20102;-70
2022/01/22 04:48:53;;;;;;;9.57;5.20;;;0.20;2201.60;;;;;;5012493;28;20041;-71
2022/01/22 04:56:38;;;;;;;10.55;5.35;;;0.30;2201.60;;;;;;5013514;28;20400;-70
2022/01/22 04:59:04;;;;;;;12.82;5.13;;;0.30;2201.60;;;;;;4996327;28;20037;-70
2022/01/22 05:01:30;;;;;;;12.07;6.40;;;0.30;2201.60;;;;;;5013750;28;20105;-70
2022/01/22 05:03:55;;;;;;;10.18;5.50;;;0.30;2201.60;;;;;;5013935;28;20108;-70
2022/01/22 05:06:21;;;;;;;13.80;6.50;;;0.20;2201.60;;;;;;5013221;28;20413;-70
2022/01/22 05:08:47;;;;;;;12.38;5.72;;;0.20;2201.60;;;;;;5013565;28;20041;-70
2022/01/22 05:11:13;;;;;;;11.02;6.68;;;0.20;2201.60;;;;;;5012049;28;20034;-70
2022/01/22 05:13:38;;;;;;;16.65;7.22;;;0.20;2201.60;;;;;;5013454;28;20030;-70
2022/01/22 05:16:04;;;;;;;14.93;7.03;;;0.20;2201.60;;;;;;5013550;28;20045;-70
2022/01/22 05:18:30;;;;;;;22.58;10.82;;;0.20;2201.60;;;;;;5013974;28;20022;-71
2022/01/22 05:21:07;;;;;;;15.45;6.93;;;0.10;2201.60;;;;;;5006668;28;20042;-70
2022/01/22 05:23:34;;;;;;;24.52;11.00;;;0.10;2201.60;;;;;;4992540;28;20088;-72
2022/01/22 05:26:03;;;;;;;14.95;8.52;;;0.10;2201.60;;;;;;4992771;28;20957;-69
2022/01/22 05:31:32;;;;;;;13.18;6.88;;;0.00;2201.60;;;;;;4992909;28;20038;-71
2022/01/22 05:39:24;;;;;;;10.27;5.60;;;0.00;2201.60;;;;;;4998230;28;20040;-71
2022/01/22 05:41:51;;;;;;;11.20;6.63;;;12.90;2201.60;;;;;;5013282;28;20026;-71
2022/01/22 05:44:17;;;;;;;14.52;9.05;;;12.90;2201.60;;;;;;5012830;28;20028;-70
2022/01/22 05:46:43;;;;;;;12.80;7.95;;;12.90;2201.60;;;;;;4994768;28;20076;-70
2022/01/22 05:49:09;;;;;;;12.50;7.38;;;12.90;2201.60;;;;;;5013098;28;20105;-70
2022/01/22 05:51:38;;;;;;;31.30;8.80;;;0.00;2201.60;;;;;;5013365;28;20117;-70
2022/01/22 05:59:37;;;;;;;17.02;9.25;;;0.10;2201.60;;;;;;5013184;28;20457;-70
2022/01/22 06:02:04;;;;;;;25.88;10.23;;;0.10;2201.60;;;;;;5013267;28;20771;-70
2022/01/22 06:04:31;;;;;;;19.73;8.30;;;0.10;2201.60;;;;;;5012400;28;20050;-70
2022/01/22 06:06:57;;;;;;;16.85;8.57;;;0.10;2201.60;;;;;;5012754;28;20040;-70
2022/01/22 06:09:25;;;;;;;19.33;8.88;;;0.10;2201.60;;;;;;5012320;28;20469;-70
2022/01/22 06:11:57;;;;;;;20.10;9.75;;;0.20;2201.60;;;;;;5012474;28;20038;-70
2022/01/22 06:14:24;;;;;;;16.60;8.00;;;0.20;2201.60;;;;;;4994520;28;20026;-70
2022/01/22 06:16:50;;;;;;;19.98;8.63;;;0.20;2201.60;;;;;;5012539;28;20030;-70
2022/01/22 06:19:16;;;;;;;14.93;7.63;;;0.30;2201.60;;;;;;4993998;28;20034;-70
2022/01/22 06:21:42;;;;;;;18.13;7.68;;;0.30;2201.60;;;;;;4994261;28;20033;-70
2022/01/22 06:24:07;;;;;;;19.58;9.43;;;0.40;2201.60;;;;;;5012468;28;20838;-71
2022/01/22 06:26:35;;;;;;;19.60;9.95;;;0.40;2201.60;;;;;;4993390;28;20084;-70
2022/01/22 06:29:02;;;;;;;18.60;8.75;;;0.50;2201.60;;;;;;5009455;28;20153;-70
2022/01/22 06:31:28;;;;;;;15.85;8.70;;;0.60;2201.60;;;;;;5011112;28;20037;-70
2022/01/22 06:33:53;;;;;;;11.25;6.75;;;0.60;2201.60;;;;;;5011568;28;20675;-69
2022/01/22 06:36:19;;;;;;;19.70;8.05;;;0.70;2201.60;;;;;;4992638;28;20540;-70
2022/01/22 06:38:47;;;;;;;10.80;5.65;;;0.70;2201.60;;;;;;5006286;28;20056;-70
2022/01/22 06:41:58;;;;;;;13.40;6.80;;;0.80;2201.60;;;;;;5011552;28;20010;-70
2022/01/22 06:43:58;;;;;;;10.68;6.03;;;0.90;2201.60;;;;;;5004026;28;20568;-70
2022/01/22 06:46:24;;;;;;;14.93;7.18;;;25.60;2201.60;;;;;;5011359;28;20054;-71
2022/01/22 06:48:50;;;;;;;14.43;7.10;;;25.60;2201.60;;;;;;4994102;28;20042;-70
2022/01/22 06:51:17;;;;;;;15.50;8.20;;;25.70;2201.60;;;;;;4994136;28;20049;-70
2022/01/22 06:53:43;;;;;;;17.90;6.80;;;25.80;2201.60;;;;;;4994121;28;20469;-70
2022/01/22 06:56:09;;;;;;;23.42;10.52;;;25.80;2201.60;;;;;;5011843;28;20050;-71
2022/01/22 06:58:35;;;;;;;33.10;14.75;;;25.80;2201.60;;;;;;5012023;28;20042;-72
2022/01/22 07:01:01;;;;;;;34.70;14.65;;;25.90;2201.60;;;;;;5011617;28;20040;-71
2022/01/22 07:03:27;;;;;;;26.75;12.98;;;25.90;2201.60;;;;;;5012091;28;20563;-71
2022/01/22 07:05:52;;;;;;;20.15;10.07;;;25.90;2201.60;;;;;;4993218;28;20398;-71
2022/01/22 07:08:18;;;;;;;19.40;7.95;;;25.90;2201.60;;;;;;4993667;28;20041;-71
2022/01/22 07:10:44;;;;;;;20.20;10.05;;;26.00;2201.60;;;;;;5011071;28;20100;-71
2022/01/22 07:13:10;;;;;;;22.50;10.23;;;26.00;2201.60;;;;;;5011781;28;20034;-70
2022/01/22 07:15:36;;;;;;;19.20;7.72;;;26.10;2201.60;;;;;;5011193;28;20026;-71
2022/01/22 07:18:03;;;;;;;16.10;8.43;;;26.00;2201.60;;;;;;5011510;28;20030;-70
2022/01/22 07:20:31;;;;;;;14.77;7.13;;;25.90;2201.60;;;;;;4992881;28;20428;-71
2022/01/22 07:23:14;;;;;;;15.75;7.95;;;25.90;2201.60;;;;;;4993471;28;20392;-71
2022/01/22 07:25:40;;;;;;;18.38;8.90;;;25.60;2201.60;;;;;;5011150;28;20033;-71
2022/01/22 07:28:06;;;;;;;22.65;10.30;;;0.80;2201.60;;;;;;4992822;28;20038;-70
2022/01/22 07:30:32;;;;;;;13.65;7.95;;;0.70;2201.60;;;;;;5010491;28;20040;-70
2022/01/22 07:32:58;;;;;;;16.05;7.43;;;0.60;2201.60;;;;;;5010101;28;20021;-70
2022/01/22 07:35:24;;;;;;;18.58;10.10;;;0.60;2201.60;;;;;;4993501;28;20037;-70
2022/01/22 07:37:50;;;;;;;22.45;12.20;;;0.60;2201.60;;;;;;5009428;28;20030;-71
2022/01/22 07:40:16;;;;;;;20.90;11.57;;;0.50;2201.60;;;;;;5008237;28;20030;-71
2022/01/22 07:42:42;;;;;;;24.98;13.50;;;0.50;2201.60;;;;;;4993493;28;20038;-71
2022/01/22 07:45:09;;;;;;;21.60;13.23;;;0.50;2201.60;;;;;;5010749;28;20033;-70
2022/01/22 07:47:36;;;;;;;24.75;13.15;;;0.50;1945.60;;;;;;4993527;28;20393;-72
2022/01/22 07:50:02;;;;;;;16.80;10.73;;;0.50;2201.60;;;;;;4992500;28;20034;-70
2022/01/22 07:52:28;;;;;;;16.70;9.68;;;0.50;2201.60;;;;;;5010865;28;20493;-70
2022/01/22 07:54:54;;;;;;;14.80;9.15;;;0.50;2201.60;;;;;;4989356;28;20073;-70
2022/01/22 07:57:19;;;;;;;14.95;8.77;;;0.50;2201.60;;;;;;4996625;28;20037;-70
2022/01/22 07:59:45;;;;;;;13.65;9.50;;;0.40;2201.60;;;;;;5014067;28;20057;-69
2022/01/22 08:02:13;;;;;;;12.27;7.65;;;0.50;2201.60;;;;;;5014326;28;20431;-71
2022/01/22 08:04:39;;;;;;;12.35;7.30;;;0.50;2201.60;;;;;;4996515;28;20064;-70
2022/01/22 08:07:05;;;;;;;17.08;8.18;;;0.50;2201.60;;;;;;5015028;28;20033;-71
2022/01/22 08:09:31;;;;;;;16.27;7.25;;;0.50;2201.60;;;;;;4996790;28;20038;-72
2022/01/22 08:11:59;;;;;;;17.38;7.43;;;0.40;2201.60;;;;;;4996628;28;20514;-71
2022/01/22 08:14:25;;;;;;;12.15;7.95;;;0.40;2201.60;;;;;;5014958;28;20084;-71
2022/01/22 08:16:51;;;;;;;21.20;10.85;;;0.40;2201.60;;;;;;4997051;28;20665;-71
2022/01/22 08:19:17;;;;;;;11.60;8.02;;;0.40;2201.60;;;;;;5012188;28;20140;-71
2022/01/22 08:21:44;;;;;;;16.20;8.75;;;0.40;2201.60;;;;;;5014383;28;20080;-70
2022/01/22 08:24:12;;;;;;;17.00;8.90;;;0.40;2201.60;;;;;;5001125;28;20038;-72
2022/01/22 08:26:44;;;;;;;17.58;10.40;;;0.30;2201.60;;;;;;4996252;28;20513;-72
2022/01/22 08:29:10;;;;;;;18.73;11.02;;;0.30;2201.60;;;;;;5012647;28;20508;-71
2022/01/22 08:36:47;;;;;;;21.75;10.45;;;0.40;2201.60;;;;;;5013939;28;20057;-71
2022/01/22 08:39:18;;;;;;;22.23;12.38;;;0.40;2201.60;;;;;;4995836;28;20116;-72
2022/01/22 08:41:44;;;;;;;25.15;14.02;;;0.40;2201.60;;;;;;5013403;28;20140;-73
2022/01/22 08:44:10;;;;;;;22.05;13.90;;;0.40;2201.60;;;;;;5010275;28;20103;-72
2022/01/22 08:46:37;;;;;;;46.92;22.42;;;0.40;2201.60;;;;;;5009458;28;20366;-73
2022/01/22 08:49:07;;;;;;;35.53;18.48;;;0.30;2201.60;;;;;;5003830;28;20048;-73
2022/01/22 08:51:35;;;;;;;27.63;15.43;;;0.40;1843.20;;;;;;4993875;28;20420;-73
2022/01/22 08:54:01;;;;;;;26.40;13.82;;;0.40;2201.60;;;;;;4994455;28;20026;-73
2022/01/22 08:56:28;;;;;;;25.67;14.20;;;0.40;2201.60;;;;;;4993610;28;20050;-74
2022/01/22 08:58:54;;;;;;;23.65;13.05;;;0.50;2201.60;;;;;;5007380;28;20413;-73
2022/01/22 09:01:21;;;;;;;28.30;16.33;;;0.50;2201.60;;;;;;5007472;28;20037;-72
2022/01/22 09:03:48;;;;;;;26.55;14.20;;;0.50;2201.60;;;;;;4994427;28;20041;-73
2022/01/22 09:06:14;;;;;;;29.42;16.30;;;0.50;2201.60;;;;;;4995108;28;20461;-74
2022/01/22 09:08:41;;;;;;;34.65;17.02;;;0.60;2201.60;;;;;;4993121;28;20129;-73
2022/01/22 09:11:07;;;;;;;28.00;13.55;;;0.60;2201.60;;;;;;4991077;28;20045;-74
2022/01/22 09:13:33;;;;;;;28.30;14.40;;;0.60;2201.60;;;;;;4992566;28;20088;-74
2022/01/22 09:16:00;;;;;;;23.52;14.23;;;0.70;2201.60;;;;;;4994623;28;20137;-73
2022/01/22 09:18:26;;;;;;;20.52;13.10;;;0.80;2201.60;;;;;;5011134;28;20042;-73
2022/01/22 09:21:02;;;;;;;24.10;13.45;;;0.70;2201.60;;;;;;5008961;28;20056;-72
2022/01/22 09:23:29;;;;;;;23.83;11.65;;;0.70;2201.60;;;;;;4994303;28;20079;-72
2022/01/22 09:25:56;;;;;;;23.38;13.85;;;0.70;2201.60;;;;;;4994598;28;20041;-72
2022/01/22 09:28:22;;;;;;;29.77;13.07;;;0.90;2201.60;;;;;;5010888;28;20022;-76
2022/01/22 09:30:48;;;;;;;26.77;14.85;;;0.90;2201.60;;;;;;4992977;28;20037;-73
2022/01/22 09:33:15;;;;;;;32.22;14.80;;;25.70;2201.60;;;;;;5012365;28;20029;-73
2022/01/22 09:35:41;;;;;;;27.08;14.90;;;25.70;2201.60;;;;;;5010606;28;20033;-74
2022/01/22 09:38:07;;;;;;;33.72;18.00;;;25.70;2201.60;;;;;;4990433;28;20117;-73
2022/01/22 09:40:33;;;;;;;22.60;13.82;;;25.60;2201.60;;;;;;5010286;28;20026;-73
2022/01/22 09:42:59;;;;;;;27.42;13.70;;;25.70;2201.60;;;;;;5012046;28;20539;-74
2022/01/22 09:45:30;;;;;;;23.70;12.65;;;25.60;2048.00;;;;;;5009341;28;20030;-73
2022/01/22 09:47:59;;;;;;;18.42;11.25;;;25.60;2201.60;;;;;;5006840;28;20044;-73
2022/01/22 09:50:26;;;;;;;22.15;12.38;;;25.80;2201.60;;;;;;4993731;28;20084;-73
2022/01/22 09:52:52;;;;;;;25.80;13.20;;;25.80;2150.40;;;;;;5009922;28;20057;-74
2022/01/22 09:55:18;;;;;;;22.40;13.40;;;26.00;2201.60;;;;;;4995386;28;20497;-73
2022/01/22 09:57:45;;;;;;;24.35;13.88;;;25.90;2201.60;;;;;;4997661;28;20401;-73
2022/01/22 10:00:14;;;;;;;24.27;15.25;;;26.10;2201.60;;;;;;5011088;28;20067;-73
2022/01/22 10:02:50;;;;;;;23.15;13.80;;;26.30;2201.60;;;;;;5012508;28;20049;-72
2022/01/22 10:05:32;;;;;;;20.55;12.75;;;26.40;2201.60;;;;;;5008772;28;20084;-72
2022/01/22 10:08:20;;;;;;;22.80;13.57;;;51.20;2227.20;;;;;;5008925;28;20056;-73
2022/01/22 10:10:47;;;;;;;24.10;13.98;;;51.20;2227.20;;;;;;4998608;28;20404;-73
2022/01/22 10:13:13;;;;;;;25.15;13.60;;;51.20;2227.20;;;;;;5008637;28;20041;-73
2022/01/22 10:15:39;;;;;;;25.95;15.13;;;51.40;2227.20;;;;;;5013020;28;20504;-73
2022/01/22 10:18:06;;;;;;;24.27;14.27;;;51.40;2227.20;;;;;;4994362;28;20034;-74
2022/01/22 10:20:33;;;;;;;21.30;14.38;;;51.40;2227.20;;;;;;5010175;28;20041;-74
2022/01/22 10:23:22;;;;;;;20.50;12.80;;;51.20;2227.20;;;;;;4993661;28;20042;-73
2022/01/22 10:25:55;;;;;;;27.75;16.10;;;26.40;2201.60;;;;;;4994148;28;20045;-74
2022/01/22 10:28:22;;;;;;;27.00;14.40;;;26.40;2201.60;;;;;;4994331;28;20596;-73
2022/01/22 10:30:55;;;;;;;26.50;16.05;;;26.30;2201.60;;;;;;4993897;28;20091;-74
2022/01/22 10:33:29;;;;;;;20.88;15.00;;;26.50;2201.60;;;;;;5009718;28;20030;-73
2022/01/22 10:36:15;;;;;;;22.45;14.85;;;26.50;2201.60;;;;;;5010109;28;20498;-75
2022/01/22 10:39:04;;;;;;;23.50;15.05;;;26.40;2201.60;;;;;;4984326;28;20244;-74
2022/01/22 10:41:33;;;;;;;27.17;17.38;;;51.20;2227.20;;;;;;5010311;28;20034;-73
2022/01/22 10:44:00;;;;;;;27.08;16.40;;;26.40;2201.60;;;;;;5008566;28;20152;-73
2022/01/22 10:46:41;;;;;;;27.33;14.27;;;26.50;2201.60;;;;;;5010283;28;20527;-73
2022/01/22 10:49:12;;;;;;;23.67;14.98;;;26.40;2201.60;;;;;;4993076;28;20045;-74
2022/01/22 10:51:51;;;;;;;22.83;15.07;;;26.20;2201.60;;;;;;5009488;28;20478;-74
2022/01/22 10:54:24;;;;;;;21.50;15.43;;;26.20;2201.60;;;;;;5006808;28;20021;-75
2022/01/22 10:56:51;;;;;;;24.55;15.18;;;26.10;2201.60;;;;;;5001445;28;20941;-75
2022/01/22 10:59:19;;;;;;;32.00;19.38;;;26.20;2201.60;;;;;;5009426;28;20034;-74
2022/01/22 11:01:47;;;;;;;30.80;17.63;;;26.30;2201.60;;;;;;5005435;28;20041;-74
2022/01/22 11:04:18;;;;;;;26.35;16.77;;;26.40;2201.60;;;;;;5010404;28;20037;-74
2022/01/22 11:06:58;;;;;;;24.00;15.95;;;26.50;2201.60;;;;;;4998705;28;20038;-73
2022/01/22 11:09:26;;;;;;;26.92;17.05;;;51.20;2227.20;;;;;;5007551;28;20042;-73
2022/01/22 11:11:53;;;;;;;25.08;15.80;;;51.20;2227.20;;;;;;5000016;28;20038;-74
2022/01/22 11:14:19;;;;;;;38.13;22.20;;;51.20;2227.20;;;;;;5002642;28;20076;-73
2022/01/22 11:16:47;;;;;;;45.63;26.85;;;51.20;2227.20;;;;;;5011231;28;20030;-73
2022/01/22 11:19:22;;;;;;;38.25;24.00;;;51.40;2227.20;;;;;;5011621;28;20048;-74
2022/01/22 11:21:51;;;;;;;49.90;24.95;;;51.60;2227.20;;;;;;5000769;28;20378;-74
2022/01/22 11:24:23;;;;;;;38.33;23.50;;;51.60;2227.20;;;;;;4997577;28;20034;-73
2022/01/22 11:26:52;;;;;;;38.03;20.10;;;51.30;2227.20;;;;;;4995737;28;20037;-73
2022/01/22 11:29:20;;;;;;;29.98;19.83;;;51.30;2227.20;;;;;;5000461;28;20482;-72
2022/01/22 11:31:48;;;;;;;29.52;18.20;;;51.40;2227.20;;;;;;5010662;28;20045;-73
2022/01/22 11:34:17;;;;;;;24.85;15.82;;;51.70;2227.20;;;;;;4985278;28;20390;-73
2022/01/22 11:37:18;;;;;;;22.63;16.15;;;51.80;2227.20;;;;;;4999780;28;20030;-74
2022/01/22 11:39:44;;;;;;;25.15;14.80;;;51.80;2227.20;;;;;;4958712;28;20053;-75
2022/01/22 11:42:10;;;;;;;32.45;19.80;;;51.70;2227.20;;;;;;4942333;29;20118;-73
2022/01/22 11:44:50;;;;;;;20.85;15.63;;;51.60;2227.20;;;;;;4953998;28;20042;-74
2022/01/22 11:47:22;;;;;;;22.80;15.95;;;51.50;2227.20;;;;;;4955853;28;20033;-75
2022/01/22 11:50:09;;;;;;;24.58;16.48;;;51.40;2227.20;;;;;;4958124;28;20043;-74
2022/01/22 11:52:41;;;;;;;25.55;16.08;;;51.40;2227.20;;;;;;4964516;28;20082;-77
2022/01/22 11:55:12;;;;;;;26.35;17.65;;;51.40;2227.20;;;;;;4959552;28;20545;-74
2022/01/22 11:57:40;;;;;;;23.35;15.40;;;51.40;2227.20;;;;;;4958410;28;20058;-75
2022/01/22 12:00:20;;;;;;;25.45;16.15;;;51.30;2227.20;;;;;;4960609;28;20039;-74
2022/01/22 12:03:08;;;;;;;26.35;18.05;;;51.40;2227.20;;;;;;4964349;28;20153;-74
2022/01/22 12:05:54;;;;;;;29.98;19.92;;;51.40;2227.20;;;;;;4959330;28;20047;-75
2022/01/22 12:08:24;;;;;;;37.10;23.88;;;51.50;2227.20;;;;;;4963099;28;20046;-75
2022/01/22 12:16:39;;;;;;;31.08;19.15;;;51.70;2227.20;;;;;;4981225;28;21245;-75
2022/01/22 12:19:48;;;;;;;31.35;20.25;;;51.70;2227.20;;;;;;5011314;28;20034;-76
2022/01/22 12:22:37;;;;;;;29.25;17.90;;;51.70;2227.20;;;;;;5006675;28;20030;-75
2022/01/22 12:25:22;;;;;;;32.42;21.08;;;51.70;2227.20;;;;;;4950590;29;20398;-75
2022/01/22 12:27:51;;;;;;;35.97;22.40;;;51.60;2227.20;;;;;;4942512;29;20047;-76
2022/01/22 12:30:38;;;;;;;31.55;20.58;;;51.50;2227.20;;;;;;4944881;29;20466;-75
2022/01/22 12:33:11;;;;;;;39.15;23.13;;;51.40;2227.20;;;;;;4938575;29;20648;-75
2022/01/22 12:35:47;;;;;;;34.13;22.63;;;51.40;2227.20;;;;;;4915335;29;20130;-74
2022/01/22 12:38:32;;;;;;;31.90;22.17;;;51.40;2227.20;;;;;;4926385;28;20035;-73
2022/01/22 12:41:29;;;;;;;34.28;23.08;;;51.50;2227.20;;;;;;4941619;29;20097;-73
2022/01/22 12:44:35;;;;;;;31.02;18.38;;;51.60;2227.20;;;;;;4941837;29;20043;-73
2022/01/22 12:47:10;;;;;;;37.83;20.48;;;51.60;2227.20;;;;;;4941393;29;20047;-73
2022/01/22 12:49:37;;;;;;;29.25;20.30;;;51.50;2227.20;;;;;;4938099;28;20107;-73
2022/01/22 12:52:06;;;;;;;29.15;18.77;;;51.50;2227.20;;;;;;4940245;29;20195;-73
2022/01/22 12:54:43;;;;;;;33.03;19.95;;;51.50;2227.20;;;;;;4935405;29;20135;-73
2022/01/22 12:57:16;;;;;;;28.25;17.52;;;51.60;2227.20;;;;;;4945786;29;20042;-73
2022/01/22 13:00:12;;;;;;;21.38;13.38;;;51.50;2227.20;;;;;;4944500;29;20035;-73
2022/01/22 13:02:44;;;;;;;27.40;15.75;;;51.60;2227.20;;;;;;4984714;28;20447;-73
2022/01/22 13:05:13;;;;;;;19.10;12.32;;;51.70;2227.20;;;;;;5012541;28;20048;-74
2022/01/22 13:07:45;;;;;;;20.73;14.20;;;51.90;2227.20;;;;;;4992955;28;20083;-72
2022/01/22 13:10:12;;;;;;;24.10;14.38;;;52.00;2227.20;;;;;;4991899;28;20030;-72
2022/01/22 13:12:44;;;;;;;19.58;13.20;;;52.10;2227.20;;;;;;5000006;28;20032;-72
2022/01/22 13:15:11;;;;;;;20.52;12.40;;;51.90;2227.20;;;;;;5012901;28;20032;-72
2022/01/22 13:17:38;;;;;;;21.50;15.75;;;51.80;2227.20;;;;;;5002105;28;20148;-72
2022/01/22 13:20:07;;;;;;;20.60;14.27;;;52.10;2227.20;;;;;;5012777;28;20026;-74
2022/01/22 13:22:37;;;;;;;20.95;14.02;;;76.90;2227.20;;;;;;5013401;28;20041;-72
2022/01/22 13:25:09;;;;;;;20.67;13.50;;;76.90;2227.20;;;;;;5013394;28;20041;-71
2022/01/22 13:27:39;;;;;;;21.60;15.07;;;77.00;2227.20;;;;;;5010867;28;20038;-73
2022/01/22 13:30:11;;;;;;;30.05;16.67;;;77.00;2227.20;;;;;;5012918;28;20489;-73
2022/01/22 13:32:59;;;;;;;24.40;16.70;;;77.00;2227.20;;;;;;5014975;28;20034;-71
2022/01/22 13:49:00;;;;;;;21.95;14.30;;;76.80;2227.20;;;;;;5010917;28;19912;-72
2022/01/22 13:51:27;;;;;;;24.27;15.65;;;52.10;2227.20;;;;;;4995386;28;20038;-71
2022/01/22 13:53:58;;;;;;;25.00;15.65;;;52.10;2227.20;;;;;;5012472;28;20026;-73
2022/01/22 13:56:44;;;;;;;24.92;15.18;;;76.80;2227.20;;;;;;5011748;28;20489;-71
2022/01/22 13:59:30;;;;;;;28.98;19.48;;;76.80;2227.20;;;;;;5009021;28;20041;-71
2022/01/22 14:04:50;;;;;;;47.60;26.50;;;76.80;2227.20;;;;;;5009266;28;21627;-72
2022/01/22 14:07:31;;;;;;;48.25;26.60;;;52.10;2227.20;;;;;;5005091;28;20034;-71
2022/01/22 14:09:59;;;;;;;36.80;24.23;;;52.00;2227.20;;;;;;4993429;28;20038;-72
2022/01/22 14:12:33;;;;;;;41.22;25.20;;;52.00;2227.20;;;;;;5004168;28;20033;-72
2022/01/22 14:15:09;;;;;;;41.72;25.30;;;51.80;2227.20;;;;;;5011462;28;20048;-74
2022/01/22 14:18:07;;;;;;;42.80;26.27;;;51.80;2227.20;;;;;;5002678;28;20502;-73
2022/01/22 14:20:35;;;;;;;44.83;26.25;;;51.70;2227.20;;;;;;5004826;28;20026;-73
2022/01/22 14:23:10;;;;;;;41.50;26.10;;;51.70;2227.20;;;;;;5008582;28;20037;-72
2022/01/22 14:25:58;;;;;;;37.60;23.30;;;51.60;2227.20;;;;;;5002499;28;20090;-73